Time;durP1;ratioP1;P1;durP2;ratioP2;P2;SDS_P1;SDS_P2;PMS_P1;PMS_P2;Temp;Humidity;BMP_temperature;BMP_pressure;BME280_temperature;BME280_humidity;BME280_pressure;Samples;Min_cycle;Max_cycle;Signal;HPM_P1;HPM_P2
2021/04/14 00:01:02;;;;;;;7.53;3.70;;;0.70;90.40;;;;;;5033759;28;20041;-63
2021/04/14 00:03:29;;;;;;;5.43;3.45;;;0.70;90.20;;;;;;5051393;28;20219;-63
2021/04/14 00:05:55;;;;;;;3.90;3.45;;;0.70;90.30;;;;;;5033884;28;20109;-63
2021/04/14 00:08:21;;;;;;;7.05;3.58;;;0.70;90.50;;;;;;5033217;28;20037;-63
2021/04/14 00:10:49;;;;;;;5.15;3.38;;;0.70;90.60;;;;;;5051012;28;20501;-63
2021/04/14 00:13:19;;;;;;;5.93;3.75;;;0.70;90.60;;;;;;5051455;28;20049;-63
2021/04/14 00:15:48;;;;;;;8.05;4.13;;;0.60;90.50;;;;;;5033101;28;20033;-63
2021/04/14 00:18:16;;;;;;;6.05;3.90;;;0.60;90.60;;;;;;5051099;28;20044;-63
2021/04/14 00:20:42;;;;;;;6.70;3.97;;;0.60;90.60;;;;;;5051109;28;20059;-63
2021/04/14 00:23:09;;;;;;;7.38;3.35;;;0.60;90.20;;;;;;5051126;28;20040;-63
2021/04/14 00:25:42;;;;;;;7.20;3.60;;;0.60;90.20;;;;;;5050717;28;20124;-63
2021/04/14 00:28:07;;;;;;;7.03;3.50;;;0.60;90.30;;;;;;5050958;28;20051;-63
2021/04/14 00:30:33;;;;;;;5.47;3.35;;;0.60;90.80;;;;;;5050792;28;20032;-63
2021/04/14 00:32:59;;;;;;;6.45;3.83;;;0.60;90.50;;;;;;5051101;28;20052;-64
2021/04/14 00:35:26;;;;;;;5.53;3.30;;;0.50;90.20;;;;;;5033017;28;20120;-63
2021/04/14 00:37:52;;;;;;;5.20;3.55;;;0.50;90.20;;;;;;5050700;28;20048;-63
2021/04/14 00:40:23;;;;;;;6.70;3.45;;;0.40;90.10;;;;;;5050151;28;20213;-63
2021/04/14 00:42:49;;;;;;;6.35;3.38;;;0.40;90.40;;;;;;5043700;28;20037;-63
2021/04/14 00:45:15;;;;;;;4.85;3.95;;;0.40;90.60;;;;;;5048456;28;20082;-64
2021/04/14 00:47:41;;;;;;;6.05;3.65;;;0.40;90.90;;;;;;5049263;28;20115;-63
2021/04/14 00:50:13;;;;;;;4.50;3.60;;;0.50;90.90;;;;;;5051055;28;20071;-63
2021/04/14 00:52:39;;;;;;;4.75;3.60;;;0.50;90.70;;;;;;5050501;28;20036;-63
2021/04/14 00:55:07;;;;;;;6.00;3.92;;;0.50;90.80;;;;;;5050784;28;20395;-63
2021/04/14 00:57:33;;;;;;;8.52;3.80;;;0.50;91.10;;;;;;5050088;28;20044;-63
2021/04/14 00:59:59;;;;;;;8.63;4.07;;;0.50;90.40;;;;;;5050361;28;20125;-63
2021/04/14 01:02:27;;;;;;;10.88;4.35;;;0.50;91.10;;;;;;5050279;28;20528;-63
2021/04/14 01:04:53;;;;;;;5.30;4.05;;;0.50;91.00;;;;;;5050319;28;20095;-63
2021/04/14 01:07:18;;;;;;;4.95;4.20;;;0.50;91.30;;;;;;5050403;28;20402;-63
2021/04/14 01:09:44;;;;;;;6.35;3.70;;;0.50;90.90;;;;;;5050285;28;20044;-63
2021/04/14 01:12:10;;;;;;;4.78;4.10;;;0.40;90.70;;;;;;5049720;28;20044;-63
2021/04/14 01:14:36;;;;;;;7.32;4.53;;;0.40;90.70;;;;;;5049838;28;20426;-63
2021/04/14 01:17:03;;;;;;;5.57;4.07;;;0.40;90.80;;;;;;5031871;28;20037;-63
2021/04/14 01:19:29;;;;;;;5.93;4.03;;;0.40;91.10;;;;;;5050048;28;20090;-63
2021/04/14 01:21:55;;;;;;;6.18;4.47;;;0.40;91.30;;;;;;5050063;28;20047;-63
2021/04/14 01:24:21;;;;;;;7.18;4.70;;;0.40;91.20;;;;;;5049752;28;20116;-63
2021/04/14 01:26:48;;;;;;;5.10;4.18;;;0.40;91.10;;;;;;5064304;28;20048;-63
2021/04/14 01:29:14;;;;;;;6.28;4.38;;;0.40;91.10;;;;;;5069707;28;20112;-63
2021/04/14 01:31:41;;;;;;;8.65;4.47;;;0.40;91.00;;;;;;5068340;28;20460;-63
2021/04/14 01:34:11;;;;;;;8.55;4.40;;;0.40;90.90;;;;;;5069900;28;20044;-63
2021/04/14 01:36:37;;;;;;;6.60;4.28;;;0.40;90.80;;;;;;5052140;28;20469;-63
2021/04/14 01:39:05;;;;;;;8.23;4.40;;;0.30;90.80;;;;;;5070229;28;20060;-63
2021/04/14 01:41:31;;;;;;;5.88;3.92;;;0.30;90.80;;;;;;5063814;28;20275;-63
2021/04/14 01:43:57;;;;;;;8.20;4.15;;;0.30;91.00;;;;;;5070208;28;20492;-63
2021/04/14 01:46:22;;;;;;;6.05;4.03;;;0.30;90.90;;;;;;5063109;28;20040;-64
2021/04/14 01:48:49;;;;;;;4.70;4.13;;;0.30;91.00;;;;;;5069986;28;20083;-63
2021/04/14 01:51:14;;;;;;;4.82;3.72;;;0.30;91.20;;;;;;5071712;28;20033;-63
2021/04/14 01:53:41;;;;;;;6.60;4.03;;;0.30;90.60;;;;;;5072872;28;20150;-63
2021/04/14 01:56:07;;;;;;;8.82;4.13;;;0.30;90.80;;;;;;5073609;28;20093;-63
2021/04/14 01:58:33;;;;;;;6.60;4.03;;;0.30;90.60;;;;;;5073541;28;20086;-63
2021/04/14 02:01:04;;;;;;;6.82;3.90;;;0.20;91.00;;;;;;5044354;28;20090;-63
2021/04/14 02:03:34;;;;;;;4.30;3.85;;;0.20;90.60;;;;;;5073871;28;20470;-63
2021/04/14 02:06:00;;;;;;;5.88;4.00;;;0.20;90.80;;;;;;5072562;28;20036;-63
2021/04/14 02:08:26;;;;;;;6.88;4.05;;;0.20;90.60;;;;;;5074093;28;20036;-63
2021/04/14 02:10:52;;;;;;;5.97;4.10;;;0.10;90.70;;;;;;5072620;28;20028;-63
2021/04/14 02:13:21;;;;;;;7.47;4.72;;;0.10;90.80;;;;;;5073097;28;20248;-63
2021/04/14 02:15:48;;;;;;;7.32;5.18;;;-0.20;91.30;;;;;;5065916;28;20048;-63
2021/04/14 02:18:34;;;;;;;7.82;4.43;;;-0.20;91.70;;;;;;5050834;28;20146;-63
2021/04/14 02:21:00;;;;;;;7.40;4.65;;;-0.30;91.90;;;;;;5073440;28;20120;-64
2021/04/14 02:23:33;;;;;;;5.20;4.38;;;-0.20;91.70;;;;;;5066406;28;20474;-63
2021/04/14 02:26:16;;;;;;;10.25;4.57;;;-0.20;91.50;;;;;;5080491;28;20056;-63
2021/04/14 02:28:45;;;;;;;7.30;5.15;;;-0.20;91.70;;;;;;5084100;28;20125;-63
2021/04/14 02:31:11;;;;;;;6.07;4.50;;;-0.20;91.80;;;;;;5069125;28;20052;-63
2021/04/14 02:33:37;;;;;;;6.55;4.68;;;-0.20;91.30;;;;;;5073302;28;20382;-63
2021/04/14 02:36:04;;;;;;;7.95;5.00;;;-0.20;91.50;;;;;;5081911;28;20044;-63
2021/04/14 02:38:31;;;;;;;8.63;4.90;;;-0.20;91.10;;;;;;5093635;28;20062;-63
2021/04/14 02:41:06;;;;;;;6.68;4.45;;;-0.20;91.40;;;;;;5092701;22;20335;-70
2021/04/14 02:43:53;;;;;;;7.50;4.43;;;-0.20;91.40;;;;;;5090839;28;20230;-70
2021/04/14 02:46:20;;;;;;;7.47;4.70;;;-0.20;91.60;;;;;;5107769;28;20114;-69
2021/04/14 02:48:48;;;;;;;6.80;4.55;;;-0.20;91.30;;;;;;5097805;28;20039;-69
2021/04/14 02:51:33;;;;;;;5.97;4.70;;;-0.10;91.80;;;;;;5091058;28;20464;-70
2021/04/14 02:53:59;;;;;;;8.57;5.25;;;-0.20;91.60;;;;;;5111452;28;20122;-71
2021/04/14 02:56:25;;;;;;;6.68;4.80;;;-0.10;92.10;;;;;;5099328;28;20115;-70
2021/04/14 02:58:50;;;;;;;10.57;5.10;;;-0.10;92.00;;;;;;5096005;28;20039;-70
2021/04/14 03:01:17;;;;;;;6.40;5.07;;;-0.10;91.90;;;;;;5101388;28;20405;-71
2021/04/14 03:03:42;;;;;;;8.65;4.75;;;-0.10;92.30;;;;;;5111620;28;20040;-70
2021/04/14 03:06:08;;;;;;;6.10;4.68;;;-0.10;91.70;;;;;;5107781;28;20120;-70
2021/04/14 03:08:34;;;;;;;5.75;4.90;;;0.00;91.70;;;;;;5094479;28;20101;-70
2021/04/14 03:11:00;;;;;;;6.18;5.13;;;-0.10;91.60;;;;;;5112139;28;20031;-70
2021/04/14 03:13:25;;;;;;;8.05;4.95;;;0.00;92.20;;;;;;5112315;28;20471;-71
2021/04/14 03:15:51;;;;;;;6.45;4.78;;;0.00;91.80;;;;;;5111809;28;20042;-71
2021/04/14 03:18:17;;;;;;;8.23;5.68;;;0.00;92.00;;;;;;5109157;28;20127;-70
2021/04/14 03:20:44;;;;;;;6.20;4.80;;;0.00;91.50;;;;;;5111870;28;20059;-72
2021/04/14 03:23:13;;;;;;;5.05;4.32;;;0.00;91.50;;;;;;5111502;28;20042;-70
2021/04/14 03:25:39;;;;;;;5.95;4.75;;;0.00;91.20;;;;;;5112103;28;20036;-70
2021/04/14 03:28:05;;;;;;;5.40;4.63;;;0.00;91.10;;;;;;5111810;28;20036;-70
2021/04/14 03:30:32;;;;;;;6.63;4.80;;;0.10;91.40;;;;;;5112262;28;20112;-69
2021/04/14 03:32:58;;;;;;;6.18;4.97;;;0.20;91.50;;;;;;5112035;28;20066;-69
2021/04/14 03:35:26;;;;;;;7.20;4.80;;;0.20;91.50;;;;;;5112056;28;20031;-69
2021/04/14 03:37:52;;;;;;;6.15;4.90;;;0.20;91.10;;;;;;5111977;27;20089;-69
2021/04/14 03:40:37;;;;;;;6.70;4.88;;;0.20;91.50;;;;;;5092894;27;20054;-69
2021/04/14 03:43:04;;;;;;;7.88;4.93;;;0.30;91.40;;;;;;5128871;27;20476;-69
2021/04/14 03:45:44;;;;;;;5.78;4.60;;;0.30;91.70;;;;;;5111838;27;20039;-71
2021/04/14 03:48:11;;;;;;;5.57;4.28;;;0.30;91.50;;;;;;5111096;28;20132;-70
2021/04/14 03:50:37;;;;;;;7.63;4.93;;;0.30;91.10;;;;;;5123148;27;20031;-71
2021/04/14 03:53:24;;;;;;;6.53;4.43;;;0.30;91.30;;;;;;5132139;27;20384;-69
2021/04/14 03:55:57;;;;;;;7.50;4.70;;;0.30;91.20;;;;;;5091064;28;20501;-69
2021/04/14 03:58:24;;;;;;;5.70;4.53;;;0.30;91.30;;;;;;5110174;27;20041;-69
2021/04/14 04:00:52;;;;;;;5.32;4.43;;;0.20;90.90;;;;;;5122297;27;20153;-69
2021/04/14 04:03:18;;;;;;;7.15;4.70;;;0.20;90.70;;;;;;5090923;28;20051;-69
2021/04/14 04:05:45;;;;;;;5.40;4.63;;;0.20;90.90;;;;;;5107004;27;20403;-69
2021/04/14 04:08:31;;;;;;;5.47;4.03;;;0.20;90.80;;;;;;5116389;27;20524;-69
2021/04/14 04:10:57;;;;;;;5.15;4.20;;;0.20;90.90;;;;;;5121134;27;20039;-71
2021/04/14 04:13:23;;;;;;;7.75;4.10;;;0.20;90.80;;;;;;5111210;28;20438;-69
2021/04/14 04:15:50;;;;;;;6.25;5.03;;;0.20;90.80;;;;;;5119411;27;20035;-69
2021/04/14 04:18:16;;;;;;;6.45;5.10;;;0.20;90.90;;;;;;5113524;27;20039;-70
2021/04/14 04:20:41;;;;;;;5.18;4.68;;;0.10;91.20;;;;;;5123535;27;20035;-70
2021/04/14 04:23:08;;;;;;;7.57;5.13;;;0.10;91.60;;;;;;5112102;27;20090;-70
2021/04/14 04:25:35;;;;;;;7.55;4.90;;;0.00;91.30;;;;;;5114199;27;20050;-70
2021/04/14 04:28:01;;;;;;;7.18;5.15;;;0.10;91.60;;;;;;5092606;28;20028;-69
2021/04/14 04:30:27;;;;;;;5.72;4.28;;;0.10;91.30;;;;;;5111673;27;20039;-69
2021/04/14 04:32:54;;;;;;;7.30;5.00;;;0.20;91.20;;;;;;5092456;28;20057;-70
2021/04/14 04:35:21;;;;;;;7.40;5.25;;;0.20;91.10;;;;;;5114310;27;20043;-70
2021/04/14 04:37:47;;;;;;;7.97;5.05;;;0.20;91.20;;;;;;5129226;27;20035;-69
2021/04/14 04:40:14;;;;;;;7.18;5.13;;;0.20;90.50;;;;;;5109630;27;20042;-69
2021/04/14 04:42:39;;;;;;;8.43;4.97;;;0.00;90.90;;;;;;5091856;28;20537;-70
2021/04/14 04:45:07;;;;;;;6.68;5.15;;;0.00;91.10;;;;;;5109938;28;20077;-70
2021/04/14 04:47:54;;;;;;;7.72;4.78;;;0.00;91.00;;;;;;5108578;28;20411;-70
2021/04/14 04:50:26;;;;;;;6.57;5.13;;;0.10;91.50;;;;;;5108443;28;20480;-70
2021/04/14 04:52:53;;;;;;;8.85;5.20;;;0.10;91.00;;;;;;5110576;28;20035;-70
2021/04/14 04:55:19;;;;;;;7.30;5.25;;;0.10;91.00;;;;;;5109693;28;20043;-71
2021/04/14 04:57:45;;;;;;;7.68;5.15;;;0.10;91.10;;;;;;5109383;28;20376;-71
2021/04/14 05:00:12;;;;;;;7.88;5.40;;;0.10;90.90;;;;;;5110116;28;20035;-70
2021/04/14 05:02:38;;;;;;;7.45;5.03;;;0.00;90.70;;;;;;5110243;28;20036;-71
2021/04/14 05:05:20;;;;;;;8.20;5.20;;;0.10;90.90;;;;;;5110152;28;20493;-70
2021/04/14 05:07:46;;;;;;;6.03;4.75;;;0.00;90.90;;;;;;5109559;28;20044;-70
2021/04/14 05:10:13;;;;;;;7.28;5.20;;;0.00;90.90;;;;;;5109843;28;20504;-70
2021/04/14 05:12:58;;;;;;;6.18;4.82;;;0.00;90.80;;;;;;5108796;28;20043;-70
2021/04/14 05:15:33;;;;;;;8.00;5.70;;;0.00;90.70;;;;;;5091652;28;20064;-70
2021/04/14 05:18:00;;;;;;;5.30;4.80;;;0.00;90.70;;;;;;5109627;28;20047;-69
2021/04/14 05:20:37;;;;;;;8.07;4.93;;;0.00;90.70;;;;;;5109859;28;20038;-69
2021/04/14 05:23:04;;;;;;;9.93;4.97;;;0.00;90.50;;;;;;5107698;28;20031;-70
2021/04/14 05:25:31;;;;;;;7.00;5.05;;;0.00;90.70;;;;;;5109356;28;20447;-70
2021/04/14 05:28:03;;;;;;;7.72;5.05;;;0.00;90.50;;;;;;5109597;28;20046;-70
2021/04/14 05:30:29;;;;;;;10.13;5.03;;;0.00;90.40;;;;;;5109530;28;20048;-70
2021/04/14 05:33:15;;;;;;;6.50;5.00;;;0.10;90.70;;;;;;5108513;28;20082;-71
2021/04/14 05:35:42;;;;;;;6.70;5.47;;;0.10;90.80;;;;;;5103626;28;20092;-70
2021/04/14 05:38:09;;;;;;;6.05;5.30;;;0.20;90.90;;;;;;5109725;28;20568;-71
2021/04/14 05:40:35;;;;;;;8.02;5.40;;;0.30;91.40;;;;;;5113918;28;20238;-70
2021/04/14 05:43:25;;;;;;;5.25;4.63;;;0.40;91.00;;;;;;5097470;28;20059;-70
2021/04/14 05:46:00;;;;;;;8.80;5.10;;;1.40;91.00;;;;;;5106699;28;20036;-70
2021/04/14 05:48:26;;;;;;;7.43;4.13;;;2.80;86.20;;;;;;5088332;28;20644;-71
2021/04/14 05:50:54;;;;;;;4.88;4.20;;;4.30;80.80;;;;;;5089385;28;20392;-70
2021/04/14 05:53:20;;;;;;;5.25;3.80;;;5.40;76.20;;;;;;5098358;28;20049;-71
2021/04/14 05:55:46;;;;;;;5.55;3.83;;;6.50;71.20;;;;;;5102553;28;20046;-71
2021/04/14 05:58:12;;;;;;;5.70;3.63;;;7.30;69.00;;;;;;5109279;28;20342;-71
2021/04/14 06:00:38;;;;;;;4.70;3.88;;;8.20;67.40;;;;;;5108874;28;20043;-71
2021/04/14 06:03:04;;;;;;;7.57;3.80;;;8.80;63.30;;;;;;5110142;28;20489;-71
2021/04/14 06:05:30;;;;;;;7.53;4.50;;;9.50;61.30;;;;;;5090751;28;20070;-71
2021/04/14 06:07:56;;;;;;;5.90;5.00;;;10.00;58.80;;;;;;5110030;28;20492;-71
2021/04/14 06:10:24;;;;;;;6.55;5.07;;;10.60;57.40;;;;;;5106197;28;20120;-71
2021/04/14 06:12:52;;;;;;;7.55;6.50;;;10.90;55.80;;;;;;5103655;28;20067;-71
2021/04/14 06:15:22;;;;;;;6.32;5.60;;;11.40;54.50;;;;;;5088163;28;20042;-70
2021/04/14 06:17:48;;;;;;;5.93;4.63;;;11.70;52.10;;;;;;5106194;28;20032;-71
2021/04/14 06:20:16;;;;;;;6.25;3.83;;;12.00;54.80;;;;;;5106031;28;20039;-71
2021/04/14 06:23:05;;;;;;;3.83;2.80;;;12.20;53.30;;;;;;5089663;28;20059;-71
2021/04/14 06:25:35;;;;;;;3.38;3.05;;;12.70;51.90;;;;;;5105671;28;20063;-71
2021/04/14 06:28:08;;;;;;;3.05;2.42;;;12.80;51.20;;;;;;5109127;28;20075;-71
2021/04/14 06:30:38;;;;;;;2.67;1.90;;;13.10;48.90;;;;;;5103261;28;20027;-72
2021/04/14 06:33:25;;;;;;;3.22;1.80;;;13.80;50.60;;;;;;5092358;28;20378;-73
2021/04/14 06:35:52;;;;;;;6.65;1.90;;;13.90;47.70;;;;;;5100359;28;20058;-72
2021/04/14 06:38:26;;;;;;;2.45;1.83;;;14.40;47.80;;;;;;5109691;28;20035;-70
2021/04/14 06:44:23;;;;;;;2.00;1.90;;;15.20;47.20;;;;;;5112694;28;20035;-71
2021/04/14 06:46:52;;;;;;;1.73;1.52;;;15.40;47.60;;;;;;5109793;28;20036;-70
2021/04/14 06:49:32;;;;;;;3.78;1.73;;;15.90;47.40;;;;;;5092822;28;20027;-71
2021/04/14 06:52:25;;;;;;;2.50;1.60;;;15.90;45.80;;;;;;5111502;28;20024;-71
2021/04/14 06:54:52;;;;;;;2.85;1.50;;;16.40;44.80;;;;;;5093131;28;20042;-71
2021/04/14 06:57:24;;;;;;;2.83;1.50;;;16.60;44.80;;;;;;5110322;28;20032;-71
2021/04/14 07:00:06;;;;;;;2.53;1.42;;;17.00;46.10;;;;;;5113674;27;20111;-71
2021/04/14 07:02:44;;;;;;;3.20;1.50;;;17.30;45.10;;;;;;5106147;28;20035;-71
2021/04/14 07:05:20;;;;;;;1.80;1.05;;;17.60;41.60;;;;;;5109502;28;20031;-70
2021/04/14 07:07:49;;;;;;;3.42;1.13;;;17.50;43.40;;;;;;5108445;28;20082;-72
2021/04/14 07:10:23;;;;;;;2.28;1.10;;;17.40;41.70;;;;;;5112220;28;20058;-71
2021/04/14 07:12:53;;;;;;;3.17;1.10;;;15.80;40.80;;;;;;5101218;28;20469;-71
2021/04/14 07:15:20;;;;;;;2.67;1.00;;;16.80;44.40;;;;;;5110481;28;20696;-71
2021/04/14 07:18:12;;;;;;;2.75;1.00;;;17.20;44.30;;;;;;5103222;28;20035;-71
2021/04/14 07:20:53;;;;;;;3.30;1.10;;;17.50;38.90;;;;;;5110150;28;20044;-71
2021/04/14 07:23:35;;;;;;;3.20;1.05;;;16.00;41.10;;;;;;5110462;27;20460;-71
2021/04/14 07:26:48;;;;;;;5.10;1.25;;;16.80;42.90;;;;;;5079844;28;20085;-71
2021/04/14 07:29:31;;;;;;;4.13;1.10;;;18.00;39.70;;;;;;5111142;28;20036;-71
2021/04/14 07:32:51;;;;;;;5.07;1.40;;;18.00;36.50;;;;;;5110717;28;20040;-70
2021/04/14 07:35:53;;;;;;;4.28;1.10;;;17.90;35.80;;;;;;5111447;28;20051;-71
2021/04/14 07:38:24;;;;;;;3.90;1.15;;;17.70;41.70;;;;;;5059064;28;20113;-70
2021/04/14 07:40:59;;;;;;;3.55;1.05;;;16.60;39.40;;;;;;5106381;28;20043;-70
2021/04/14 07:44:03;;;;;;;5.43;1.20;;;17.20;40.40;;;;;;5110836;28;20039;-70
2021/04/14 07:46:29;;;;;;;4.80;1.25;;;17.30;40.10;;;;;;5095980;27;20035;-70
2021/04/14 07:48:58;;;;;;;6.38;1.40;;;14.20;40.20;;;;;;5119999;27;20110;-71
2021/04/14 07:51:28;;;;;;;3.30;0.90;;;14.20;46.00;;;;;;5090925;28;20130;-70
2021/04/14 07:54:07;;;;;;;3.67;0.90;;;12.90;46.10;;;;;;5109754;28;20035;-69
2021/04/14 07:56:46;;;;;;;3.22;1.00;;;12.50;50.10;;;;;;5111912;28;20115;-70
2021/04/14 07:59:32;;;;;;;3.22;0.95;;;11.20;47.90;;;;;;5110641;28;20032;-70
2021/04/14 08:02:03;;;;;;;2.90;1.48;;;11.30;53.20;;;;;;5110207;28;20046;-70
2021/04/14 08:04:35;;;;;;;3.58;1.00;;;10.50;52.10;;;;;;5110585;28;20044;-70
2021/04/14 08:07:08;;;;;;;3.42;0.93;;;9.70;52.70;;;;;;5109611;28;20027;-70
2021/04/14 08:09:34;;;;;;;2.05;0.90;;;9.90;57.10;;;;;;5097218;28;20054;-70
2021/04/14 08:12:07;;;;;;;3.28;0.85;;;9.60;56.20;;;;;;5103366;28;20040;-70
2021/04/14 08:14:38;;;;;;;4.43;1.15;;;9.40;57.30;;;;;;5105093;28;20047;-71
2021/04/14 08:17:14;;;;;;;6.90;1.00;;;9.20;55.10;;;;;;5104192;28;20081;-70
2021/04/14 08:19:40;;;;;;;3.55;0.95;;;9.50;59.00;;;;;;5106552;28;20032;-70
2021/04/14 08:22:21;;;;;;;5.47;1.02;;;9.10;55.40;;;;;;5107685;28;20154;-70
2021/04/14 08:24:54;;;;;;;5.20;1.17;;;9.10;56.50;;;;;;5091367;28;20551;-70
2021/04/14 08:27:23;;;;;;;3.10;0.88;;;9.20;56.40;;;;;;5109982;27;20031;-70
2021/04/14 08:30:08;;;;;;;5.13;0.90;;;9.40;57.40;;;;;;5107710;28;20049;-70
2021/04/14 08:32:45;;;;;;;7.10;1.10;;;9.80;58.80;;;;;;5105327;27;20024;-70
2021/04/14 08:35:24;;;;;;;4.57;1.08;;;10.10;58.60;;;;;;5102315;27;20049;-70
2021/04/14 08:38:03;;;;;;;2.25;0.50;;;10.00;55.20;;;;;;5108022;27;20042;-70
2021/04/14 08:40:31;;;;;;;2.40;0.63;;;9.80;57.10;;;;;;5105933;28;20047;-70
2021/04/14 08:43:07;;;;;;;3.60;0.90;;;9.50;52.50;;;;;;5106103;28;20248;-71
2021/04/14 08:45:36;;;;;;;3.33;0.88;;;9.20;54.70;;;;;;5108171;28;20036;-71
2021/04/14 08:48:15;;;;;;;5.57;1.10;;;8.90;58.30;;;;;;5109743;28;20536;-70
2021/04/14 08:50:52;;;;;;;5.18;1.00;;;8.50;56.50;;;;;;5107412;28;20110;-69
2021/04/14 08:53:24;;;;;;;3.03;1.35;;;8.20;58.70;;;;;;5087767;28;20556;-68
2021/04/14 08:55:50;;;;;;;3.72;0.75;;;8.20;59.90;;;;;;5108175;28;20044;-69
2021/04/14 08:58:19;;;;;;;4.97;1.00;;;8.30;62.10;;;;;;5106414;28;20032;-68
2021/04/14 09:00:45;;;;;;;2.30;0.70;;;8.40;59.70;;;;;;5104141;28;20050;-68
2021/04/14 09:03:15;;;;;;;0.98;0.63;;;8.30;61.20;;;;;;5108457;28;20033;-68
2021/04/14 09:05:44;;;;;;;1.80;0.68;;;8.40;62.10;;;;;;5105282;28;20381;-69
2021/04/14 09:08:12;;;;;;;1.77;0.70;;;8.40;62.90;;;;;;5108421;28;20039;-69
2021/04/14 09:10:56;;;;;;;1.38;0.50;;;8.60;61.90;;;;;;5104867;28;20035;-69
2021/04/14 09:13:46;;;;;;;1.83;0.70;;;8.70;62.10;;;;;;5104451;28;20050;-69
2021/04/14 09:16:13;;;;;;;2.88;0.88;;;9.00;62.80;;;;;;5104101;28;20132;-69
2021/04/14 09:18:45;;;;;;;2.40;0.55;;;8.90;62.20;;;;;;5108650;28;20484;-69
2021/04/14 09:21:12;;;;;;;1.52;0.75;;;8.70;62.80;;;;;;5090024;28;20071;-69
2021/04/14 09:24:07;;;;;;;1.63;0.50;;;8.70;62.70;;;;;;5107100;27;21625;-69
2021/04/14 09:26:40;;;;;;;3.67;1.00;;;8.80;62.50;;;;;;5104594;28;20032;-69
2021/04/14 09:29:26;;;;;;;2.95;0.90;;;8.90;62.50;;;;;;5088353;28;20031;-69
2021/04/14 09:31:55;;;;;;;3.92;0.85;;;8.80;59.60;;;;;;5107586;28;20419;-69
2021/04/14 09:34:41;;;;;;;3.00;0.80;;;9.00;60.10;;;;;;5107352;28;20040;-69
2021/04/14 09:37:20;;;;;;;1.00;0.30;;;9.00;61.90;;;;;;5108049;28;20100;-69
2021/04/14 09:39:50;;;;;;;1.95;0.50;;;9.00;58.80;;;;;;5105848;28;20389;-69
2021/04/14 09:42:24;;;;;;;2.72;0.43;;;9.20;61.80;;;;;;5109218;28;20113;-69
2021/04/14 09:44:55;;;;;;;3.35;0.63;;;9.30;61.20;;;;;;5102348;28;20031;-69
2021/04/14 09:47:29;;;;;;;3.75;0.77;;;9.20;58.80;;;;;;5106324;28;20297;-69
2021/04/14 09:49:58;;;;;;;3.78;0.63;;;9.30;59.10;;;;;;5106400;28;20032;-69
2021/04/14 09:52:26;;;;;;;2.60;0.52;;;9.20;56.10;;;;;;5088492;28;20035;-68
2021/04/14 09:55:07;;;;;;;2.45;0.70;;;9.30;57.50;;;;;;5088804;28;20032;-66
2021/04/14 09:57:39;;;;;;;4.97;0.70;;;9.10;56.90;;;;;;5091080;28;20477;-66
2021/04/14 10:00:13;;;;;;;2.70;0.80;;;9.30;57.90;;;;;;5108956;28;20503;-66
2021/04/14 10:02:39;;;;;;;2.15;0.60;;;9.40;58.50;;;;;;5074934;28;20379;-67
2021/04/14 10:05:05;;;;;;;3.45;1.00;;;9.40;59.10;;;;;;5107770;28;20552;-67
2021/04/14 10:07:37;;;;;;;4.10;0.80;;;9.20;56.90;;;;;;5107216;28;20229;-67
2021/04/14 10:10:23;;;;;;;3.97;0.88;;;8.90;54.40;;;;;;5107696;28;20035;-67
2021/04/14 10:12:52;;;;;;;4.68;1.10;;;8.90;58.00;;;;;;5111087;28;20050;-67
2021/04/14 10:15:32;;;;;;;6.28;1.08;;;9.10;58.60;;;;;;5092933;28;20048;-67
2021/04/14 10:18:05;;;;;;;2.90;0.75;;;9.20;57.90;;;;;;5111205;28;20139;-67
2021/04/14 10:20:35;;;;;;;2.50;0.57;;;9.50;57.60;;;;;;5092179;28;20370;-67
2021/04/14 10:23:01;;;;;;;4.18;1.13;;;9.70;55.00;;;;;;5110083;28;20095;-67
2021/04/14 10:25:32;;;;;;;3.55;0.73;;;10.00;58.00;;;;;;5109128;27;20044;-67
2021/04/14 10:28:15;;;;;;;3.53;0.63;;;10.10;53.40;;;;;;5089961;28;20485;-67
2021/04/14 10:30:50;;;;;;;3.72;0.88;;;9.90;51.50;;;;;;5107265;28;20039;-67
2021/04/14 10:33:21;;;;;;;3.58;1.08;;;10.10;53.20;;;;;;5102410;28;20059;-67
2021/04/14 10:35:49;;;;;;;3.22;1.15;;;10.30;52.10;;;;;;5110672;28;20165;-67
2021/04/14 10:38:26;;;;;;;2.22;0.60;;;9.70;51.00;;;;;;5107732;28;20110;-67
2021/04/14 10:40:51;;;;;;;2.72;0.68;;;10.20;51.50;;;;;;5109519;28;20056;-68
2021/04/14 10:43:22;;;;;;;1.73;0.63;;;10.60;54.70;;;;;;5092862;28;20032;-67
2021/04/14 10:46:10;;;;;;;1.52;0.70;;;10.30;45.20;;;;;;5086998;28;20904;-67
2021/04/14 10:48:40;;;;;;;2.25;0.60;;;10.80;51.50;;;;;;5111117;28;20032;-67
2021/04/14 10:51:22;;;;;;;2.42;0.70;;;11.20;53.80;;;;;;5110630;28;20051;-67
2021/04/14 10:53:54;;;;;;;2.28;0.95;;;10.70;54.10;;;;;;5110513;27;20039;-67
2021/04/14 10:56:22;;;;;;;4.00;0.68;;;10.20;55.70;;;;;;5108900;28;20051;-67
2021/04/14 10:58:49;;;;;;;3.28;0.63;;;9.80;57.80;;;;;;5091356;28;20032;-67
2021/04/14 11:01:29;;;;;;;2.53;0.70;;;9.20;57.50;;;;;;5110044;28;20031;-68
2021/04/14 11:04:15;;;;;;;2.58;0.75;;;9.20;59.30;;;;;;5111409;28;20400;-67
2021/04/14 11:06:43;;;;;;;2.30;0.98;;;9.20;60.30;;;;;;5108736;28;20100;-67
2021/04/14 11:09:09;;;;;;;2.42;0.73;;;9.20;61.40;;;;;;5108837;28;20048;-67
2021/04/14 11:11:37;;;;;;;1.92;0.80;;;9.20;60.80;;;;;;5090672;28;20039;-67
2021/04/14 11:14:05;;;;;;;2.80;0.80;;;9.20;59.80;;;;;;5092522;28;20629;-66
2021/04/14 11:16:33;;;;;;;3.60;1.30;;;9.50;61.10;;;;;;5080421;28;20036;-66
2021/04/14 11:18:59;;;;;;;5.40;0.93;;;9.80;61.60;;;;;;5109675;28;20039;-66
2021/04/14 11:21:30;;;;;;;5.05;1.13;;;10.20;60.20;;;;;;5108831;28;20046;-67
2021/04/14 11:24:13;;;;;;;2.78;0.90;;;10.30;56.90;;;;;;5108977;28;20118;-67
2021/04/14 11:26:46;;;;;;;;;;;10.00;55.90;;;;;;5117274;27;20123;-67
2021/04/14 11:29:20;;;;;;;3.03;0.80;;;9.80;55.90;;;;;;5108277;28;20419;-67
2021/04/14 11:31:49;;;;;;;3.15;0.93;;;9.60;57.50;;;;;;5110202;28;20028;-67
2021/04/14 11:34:16;;;;;;;2.85;0.88;;;9.80;60.10;;;;;;5090650;28;20044;-67
2021/04/14 11:36:59;;;;;;;2.05;0.63;;;9.80;59.60;;;;;;5110369;28;20248;-67
2021/04/14 11:39:26;;;;;;;3.22;1.10;;;9.80;58.00;;;;;;5088486;28;20050;-68
2021/04/14 11:42:06;;;;;;;3.38;0.93;;;9.80;57.80;;;;;;5091629;28;20094;-66
2021/04/14 11:44:41;;;;;;;1.67;0.80;;;9.70;59.70;;;;;;5110799;28;20044;-66
2021/04/14 11:47:18;;;;;;;2.72;0.55;;;10.00;58.20;;;;;;5108939;28;20042;-66
2021/04/14 11:49:44;;;;;;;4.68;1.20;;;10.30;59.30;;;;;;5092656;28;20040;-66
2021/04/14 11:52:32;;;;;;;6.28;0.88;;;10.70;57.70;;;;;;5110339;28;20557;-66
2021/04/14 11:55:12;;;;;;;2.05;0.60;;;10.70;55.60;;;;;;5108417;28;20046;-66
2021/04/14 11:57:43;;;;;;;3.55;0.68;;;10.60;52.80;;;;;;5108096;28;20450;-66
2021/04/14 12:00:15;;;;;;;1.70;0.70;;;10.10;49.50;;;;;;5110067;28;20477;-66
2021/04/14 12:02:42;;;;;;;1.88;0.50;;;9.80;52.30;;;;;;5110498;28;20048;-67
2021/04/14 12:05:09;;;;;;;2.30;0.60;;;9.70;55.60;;;;;;5108232;28;21392;-67
2021/04/14 12:07:35;;;;;;;2.67;0.60;;;9.70;57.10;;;;;;5092139;28;20058;-67
2021/04/14 12:10:01;;;;;;;1.95;0.60;;;9.90;58.20;;;;;;5109515;28;20472;-67
2021/04/14 12:12:27;;;;;;;1.50;0.50;;;10.10;56.40;;;;;;5105535;28;20135;-67
2021/04/14 12:14:53;;;;;;;3.17;0.70;;;9.70;49.30;;;;;;5109036;28;20089;-67
2021/04/14 12:17:19;;;;;;;4.47;0.50;;;9.30;47.20;;;;;;5090130;28;20639;-67
2021/04/14 12:19:45;;;;;;;2.38;0.52;;;9.30;50.50;;;;;;5091326;28;20512;-67
2021/04/14 12:22:12;;;;;;;2.08;0.50;;;9.50;52.90;;;;;;5108484;28;20035;-67
2021/04/14 12:24:38;;;;;;;1.42;0.40;;;9.50;47.60;;;;;;5087880;28;20046;-67
2021/04/14 12:27:04;;;;;;;2.25;0.55;;;9.80;51.40;;;;;;5092424;27;20404;-67
2021/04/14 12:29:30;;;;;;;2.13;0.60;;;10.20;51.70;;;;;;5117635;27;20041;-66
2021/04/14 12:31:56;;;;;;;1.85;0.60;;;10.00;47.80;;;;;;5089897;28;20050;-67
2021/04/14 12:34:22;;;;;;;1.05;0.68;;;9.80;46.20;;;;;;5108545;28;20051;-67
2021/04/14 12:36:48;;;;;;;2.38;0.65;;;9.60;44.40;;;;;;5108928;28;20453;-67
2021/04/14 12:39:15;;;;;;;2.13;0.40;;;9.80;44.40;;;;;;5106973;28;20036;-67
2021/04/14 12:41:41;;;;;;;0.63;0.40;;;10.20;51.50;;;;;;5109162;28;20058;-67
2021/04/14 12:44:08;;;;;;;2.40;0.70;;;10.60;51.40;;;;;;5108932;28;20051;-67
2021/04/14 12:46:43;;;;;;;4.90;0.82;;;10.60;51.20;;;;;;5107370;28;20640;-67
2021/04/14 12:49:12;;;;;;;1.80;0.70;;;11.00;51.40;;;;;;5109021;28;20081;-67
2021/04/14 12:51:47;;;;;;;3.25;0.60;;;10.90;48.90;;;;;;5090285;28;20375;-67
2021/04/14 12:54:19;;;;;;;1.92;0.43;;;10.50;50.00;;;;;;5106906;28;20143;-67
2021/04/14 12:56:52;;;;;;;2.47;0.75;;;10.70;51.50;;;;;;5108971;28;20031;-67
2021/04/14 12:59:21;;;;;;;1.75;0.63;;;10.90;50.00;;;;;;5107913;28;20061;-67
2021/04/14 13:01:51;;;;;;;1.40;0.50;;;10.90;48.80;;;;;;5100952;28;20046;-67
2021/04/14 13:04:26;;;;;;;2.10;0.60;;;10.80;48.50;;;;;;5084826;28;20053;-67
2021/04/14 13:06:57;;;;;;;1.80;0.60;;;10.80;48.00;;;;;;5109055;28;20518;-67
2021/04/14 13:09:23;;;;;;;1.35;0.50;;;11.20;50.70;;;;;;5074179;28;20047;-67
2021/04/14 13:11:56;;;;;;;1.27;0.50;;;11.10;46.50;;;;;;5108940;28;20058;-67
2021/04/14 13:14:22;;;;;;;1.67;0.40;;;11.20;45.60;;;;;;5107700;28;20039;-67
2021/04/14 13:16:57;;;;;;;2.08;0.63;;;10.40;42.60;;;;;;5108976;28;20395;-67